Time;durP1;ratioP1;P1;durP2;ratioP2;P2;SDS_P1;SDS_P2;PMS_P1;PMS_P2;Temp;Humidity;BMP_temperature;BMP_pressure;BME280_temperature;BME280_humidity;BME280_pressure;Samples;Min_cycle;Max_cycle;Signal;HPM_P1;HPM_P2
2021/03/13 08:17:40;;;;;;;17.83;14.70;;;10.40;91.20;;;;;;5069800;28;20169;-74
2021/03/13 08:20:09;;;;;;;16.80;14.93;;;10.70;90.40;;;;;;5070022;28;20044;-73
2021/03/13 08:22:35;;;;;;;14.32;12.45;;;11.00;91.60;;;;;;5070131;28;20092;-72
2021/03/13 08:25:01;;;;;;;15.77;13.95;;;11.10;89.90;;;;;;5068660;28;20032;-72
2021/03/13 08:27:33;;;;;;;19.17;13.23;;;11.10;91.70;;;;;;5068646;28;20036;-74
2021/03/13 08:29:59;;;;;;;14.38;12.82;;;10.90;91.00;;;;;;5068625;28;20472;-72
2021/03/13 08:32:56;;;;;;;14.35;12.20;;;10.70;91.50;;;;;;5069904;28;20072;-71
2021/03/13 08:35:37;;;;;;;14.55;13.00;;;10.60;91.30;;;;;;5069795;28;20056;-71
2021/03/13 08:38:04;;;;;;;16.13;13.00;;;10.70;91.00;;;;;;5069653;28;20024;-70
2021/03/13 08:40:31;;;;;;;15.77;12.43;;;11.20;91.30;;;;;;5069451;28;20462;-73
2021/03/13 08:42:57;;;;;;;13.68;11.95;;;11.30;91.60;;;;;;5068337;28;20063;-72
2021/03/13 08:45:23;;;;;;;13.73;11.70;;;11.60;91.20;;;;;;5069922;28;20033;-71
2021/03/13 08:47:52;;;;;;;14.60;12.55;;;11.40;89.50;;;;;;5069608;28;20528;-71
2021/03/13 08:50:43;;;;;;;14.35;12.82;;;11.30;89.70;;;;;;5069495;28;20029;-71
2021/03/13 08:53:35;;;;;;;13.80;12.23;;;11.10;90.60;;;;;;5069546;28;20079;-72
2021/03/13 08:56:02;;;;;;;11.23;10.02;;;10.90;89.80;;;;;;5067304;28;20179;-71
2021/03/13 08:58:42;;;;;;;11.70;10.57;;;11.30;89.70;;;;;;5058216;28;20106;-73
2021/03/13 09:01:20;;;;;;;11.10;10.00;;;12.20;89.10;;;;;;5049376;28;20032;-72
2021/03/13 09:03:49;;;;;;;16.38;7.50;;;12.60;94.40;;;;;;5049352;28;20033;-72
2021/03/13 09:06:22;;;;;;;8.93;8.00;;;14.30;94.70;;;;;;5048934;28;20367;-71
2021/03/13 09:08:48;;;;;;;10.32;8.07;;;14.80;90.60;;;;;;5049293;28;20182;-71
2021/03/13 09:11:36;;;;;;;10.43;9.18;;;14.60;85.70;;;;;;5049189;28;20029;-72
2021/03/13 09:14:03;;;;;;;12.13;10.13;;;15.20;91.10;;;;;;5049023;28;20072;-71
2021/03/13 09:16:34;;;;;;;13.57;9.85;;;15.20;81.10;;;;;;5045407;28;20072;-72
2021/03/13 09:19:00;;;;;;;9.15;8.23;;;15.60;79.20;;;;;;5034411;28;20116;-71
2021/03/13 09:21:38;;;;;;;9.48;8.57;;;15.80;80.50;;;;;;5034434;28;20168;-71
2021/03/13 09:24:05;;;;;;;10.02;8.32;;;;;;;;;;5035679;28;20029;-72
2021/03/13 09:26:31;;;;;;;10.27;9.43;;;;;;;;;;5048965;28;20477;-73
2021/03/13 09:28:57;;;;;;;9.73;8.73;;;;;;;;;;5053849;28;20051;-73
2021/03/13 09:31:24;;;;;;;9.82;8.93;;;;;;;;;;5054267;28;20482;-73
2021/03/13 09:33:49;;;;;;;6.35;5.75;;;15.40;68.00;;;;;;5055211;28;20097;-71
2021/03/13 09:36:16;;;;;;;5.57;4.97;;;14.70;69.30;;;;;;5053915;28;20124;-72
2021/03/13 09:38:55;;;;;;;6.30;5.60;;;14.10;70.20;;;;;;5055696;28;20044;-72
2021/03/13 09:41:20;;;;;;;5.40;4.90;;;13.50;70.90;;;;;;5053884;28;20052;-71
2021/03/13 09:43:46;;;;;;;4.53;4.13;;;13.40;73.00;;;;;;5055240;28;20469;-72
2021/03/13 09:46:19;;;;;;;6.93;5.93;;;14.00;72.10;;;;;;5054707;28;20432;-71
2021/03/13 09:48:45;;;;;;;6.05;5.55;;;14.30;73.60;;;;;;5054709;28;20393;-70
2021/03/13 09:51:11;;;;;;;7.97;6.57;;;14.70;72.50;;;;;;5053831;28;20102;-70
2021/03/13 09:53:42;;;;;;;7.35;6.65;;;14.80;70.40;;;;;;5053726;28;20481;-70
2021/03/13 09:56:08;;;;;;;9.15;8.25;;;15.20;71.50;;;;;;5054932;28;20167;-70
2021/03/13 09:58:34;;;;;;;9.98;8.98;;;15.40;69.90;;;;;;5053729;28;20127;-72
2021/03/13 10:01:01;;;;;;;10.73;9.02;;;15.80;73.10;;;;;;5054924;28;20457;-71
2021/03/13 10:03:47;;;;;;;11.18;10.07;;;15.90;70.60;;;;;;5055048;28;20079;-72
2021/03/13 10:06:31;;;;;;;10.90;9.70;;;15.40;69.00;;;;;;5047427;28;20366;-71
2021/03/13 10:08:59;;;;;;;9.20;8.25;;;15.40;70.70;;;;;;5051903;28;20052;-71
2021/03/13 10:11:39;;;;;;;10.82;8.70;;;14.90;68.80;;;;;;5052335;28;20037;-71
2021/03/13 10:14:05;;;;;;;10.75;9.65;;;14.70;69.40;;;;;;5054608;28;20025;-70
2021/03/13 10:16:39;;;;;;;9.90;7.40;;;15.00;71.40;;;;;;5050447;28;20486;-71
2021/03/13 10:19:37;;;;;;;6.85;6.22;;;14.60;69.40;;;;;;5039216;28;20104;-73
2021/03/13 10:22:46;;;;;;;7.13;6.43;;;15.10;66.50;;;;;;5043502;28;20477;-72
2021/03/13 10:25:12;;;;;;;8.57;6.63;;;14.80;66.90;;;;;;5047238;28;20060;-70
2021/03/13 10:27:38;;;;;;;8.20;7.50;;;14.50;68.80;;;;;;5037076;28;20086;-71
2021/03/13 10:30:07;;;;;;;8.50;7.60;;;14.10;68.90;;;;;;5052007;28;20021;-71
2021/03/13 10:32:37;;;;;;;9.18;8.20;;;14.10;70.60;;;;;;5053929;28;20087;-71
2021/03/13 10:35:10;;;;;;;8.45;7.63;;;15.10;72.50;;;;;;5052725;28;20381;-72
2021/03/13 10:37:42;;;;;;;9.32;6.68;;;16.20;67.80;;;;;;5052774;28;20041;-72
2021/03/13 10:40:10;;;;;;;11.43;7.32;;;16.70;62.80;;;;;;5047727;28;20029;-70
2021/03/13 10:42:36;;;;;;;8.93;7.28;;;15.60;63.50;;;;;;5034215;28;20084;-71
2021/03/13 10:45:17;;;;;;;7.80;7.00;;;15.00;66.90;;;;;;5040640;28;20044;-70
2021/03/13 10:47:44;;;;;;;8.10;7.30;;;14.50;67.80;;;;;;5053686;28;20465;-71
2021/03/13 10:50:11;;;;;;;9.50;8.13;;;14.10;68.40;;;;;;5052394;28;20623;-72
2021/03/13 10:52:38;;;;;;;9.90;8.32;;;13.90;70.40;;;;;;5053944;28;20039;-71
2021/03/13 10:55:06;;;;;;;9.68;8.75;;;13.90;71.30;;;;;;5053725;28;20060;-71
2021/03/13 10:57:32;;;;;;;9.35;8.10;;;18.50;58.30;;;;;;5053803;28;20040;-70
2021/03/13 10:59:58;;;;;;;7.28;6.60;;;18.70;59.80;;;;;;5053698;28;20063;-74
2021/03/13 11:02:23;;;;;;;7.57;6.88;;;19.90;52.40;;;;;;5053781;28;20045;-73
2021/03/13 11:04:49;;;;;;;8.52;7.63;;;21.20;50.50;;;;;;5052411;28;20029;-72
2021/03/13 11:07:15;;;;;;;9.25;6.43;;;21.90;47.20;;;;;;5051883;28;20027;-71
2021/03/13 11:09:48;;;;;;;7.07;6.38;;;22.30;45.10;;;;;;5052577;28;20362;-71
2021/03/13 11:12:14;;;;;;;6.70;6.03;;;22.70;45.40;;;;;;5052179;28;20063;-72
2021/03/13 11:18:03;;;;;;;4.45;4.00;;;23.20;43.60;;;;;;5035088;28;20044;-68
2021/03/13 11:20:29;;;;;;;5.57;5.07;;;24.00;40.40;;;;;;5051392;28;20029;-69
2021/03/13 11:22:56;;;;;;;5.05;4.53;;;25.00;38.00;;;;;;5052981;28;20388;-71
2021/03/13 11:25:23;;;;;;;5.50;4.63;;;26.20;35.80;;;;;;5052716;28;20025;-70
2021/03/13 11:27:49;;;;;;;5.50;4.57;;;27.00;35.00;;;;;;5052843;28;20036;-68
2021/03/13 11:30:16;;;;;;;5.88;5.00;;;;;;;;;;5053242;28;20035;-69
2021/03/13 11:32:42;;;;;;;6.78;5.40;;;;;;;;;;5053120;28;20056;-71
2021/03/13 11:35:09;;;;;;;5.15;4.65;;;;;;;;;;5051601;28;20025;-69
2021/03/13 11:37:36;;;;;;;5.38;4.88;;;;;;;;;;5051649;28;20067;-69
2021/03/13 11:40:04;;;;;;;7.15;4.93;;;;;;;;;;5052835;28;20108;-71
2021/03/13 11:42:30;;;;;;;20.40;15.20;;;;;;;;;;5052968;28;20017;-71
2021/03/13 11:44:59;;;;;;;16.73;12.77;;;24.30;36.80;;;;;;5051636;28;20532;-69
2021/03/13 11:47:28;;;;;;;11.13;7.85;;;22.90;39.00;;;;;;5052954;28;20033;-70
2021/03/13 11:49:55;;;;;;;5.00;4.00;;;25.00;36.30;;;;;;5052844;28;20025;-69
2021/03/13 11:52:21;;;;;;;3.92;3.63;;;25.10;36.70;;;;;;5052922;28;20029;-69
2021/03/13 11:54:49;;;;;;;4.70;4.22;;;26.20;36.10;;;;;;5051456;28;20029;-70
2021/03/13 11:57:16;;;;;;;5.30;4.50;;;27.20;34.50;;;;;;5051519;28;20044;-71
2021/03/13 11:59:48;;;;;;;4.25;3.85;;;27.70;32.90;;;;;;5051417;28;20515;-71
2021/03/13 12:02:16;;;;;;;5.78;4.25;;;26.90;33.00;;;;;;5051445;28;20458;-69
2021/03/13 12:04:43;;;;;;;4.95;4.10;;;;;;;;;;5052635;28;20143;-70
2021/03/13 12:07:09;;;;;;;4.68;4.05;;;;;;;;;;5051369;28;20021;-70
2021/03/13 12:09:35;;;;;;;6.57;4.25;;;25.80;32.60;;;;;;5050647;28;20531;-70
2021/03/13 12:12:04;;;;;;;8.20;4.72;;;;;;;;;;5037136;28;20041;-71
2021/03/13 12:14:31;;;;;;;5.47;4.43;;;;;;;;;;5038476;28;20026;-69
2021/03/13 12:16:57;;;;;;;3.70;3.40;;;;;;;;;;5030956;28;20103;-70
2021/03/13 12:19:23;;;;;;;4.63;3.97;;;;;;;;;;5034590;28;20025;-71
2021/03/13 12:21:50;;;;;;;5.30;4.80;;;26.10;32.20;;;;;;5051279;28;20029;-70
2021/03/13 12:24:16;;;;;;;4.72;4.32;;;23.10;38.20;;;;;;5052436;28;20029;-72
2021/03/13 12:26:43;;;;;;;5.97;4.20;;;;;;;;;;5052205;28;20098;-70
2021/03/13 12:29:09;;;;;;;6.68;4.65;;;24.90;37.10;;;;;;5052367;28;20461;-71
2021/03/13 12:31:35;;;;;;;3.88;3.53;;;23.00;37.90;;;;;;5052636;28;20040;-70
2021/03/13 12:34:01;;;;;;;4.95;3.45;;;22.90;38.60;;;;;;5051169;28;20118;-70
2021/03/13 12:36:28;;;;;;;4.95;4.30;;;;;;;;;;5052274;28;20488;-70
2021/03/13 12:38:54;;;;;;;4.63;3.90;;;;;;;;;;5032234;28;20061;-71
2021/03/13 12:41:20;;;;;;;4.93;4.10;;;;;;;;;;5031446;28;20497;-72
2021/03/13 12:46:50;;;;;;;7.57;5.72;;;;;;;;;;5041106;28;20070;-71
2021/03/13 12:49:16;;;;;;;9.25;6.85;;;;;;;;;;5051571;28;20057;-70
2021/03/13 12:51:42;;;;;;;6.68;5.00;;;27.00;33.00;;;;;;5052376;28;20021;-69
2021/03/13 12:54:08;;;;;;;4.70;4.22;;;27.30;34.70;;;;;;5056183;28;20437;-72
2021/03/13 12:56:35;;;;;;;4.57;4.15;;;;;;;;;;5055467;28;20124;-70
2021/03/13 12:59:10;;;;;;;9.57;7.13;;;;;;;;;;5055984;28;20068;-70
2021/03/13 13:01:43;;;;;;;4.45;3.92;;;;;;;;;;5055773;28;20438;-72
2021/03/13 13:04:30;;;;;;;8.70;5.55;;;;;;;;;;5053039;28;20071;-71
2021/03/13 13:07:11;;;;;;;9.35;5.32;;;32.00;28.90;;;;;;5054140;28;20108;-71
2021/03/13 13:09:38;;;;;;;8.05;5.20;;;31.90;28.30;;;;;;5055840;28;20444;-71
2021/03/13 13:12:04;;;;;;;8.05;4.57;;;32.90;29.00;;;;;;5055928;28;20032;-70
2021/03/13 13:14:30;;;;;;;4.43;4.03;;;33.40;28.10;;;;;;5054973;28;20056;-69
2021/03/13 13:30:51;;;;;;;6.85;5.80;;;;;;;;;;5143513;23;20069;-66
2021/03/13 13:33:16;;;;;;;11.77;6.85;;;27.70;30.70;;;;;;5015507;28;20113;-66
2021/03/13 13:35:42;;;;;;;6.53;4.60;;;26.50;33.40;;;;;;5015181;28;20117;-67
2021/03/13 13:38:09;;;;;;;13.60;7.07;;;23.50;37.80;;;;;;5015536;28;20038;-67
2021/03/13 13:40:35;;;;;;;11.57;6.80;;;23.30;38.30;;;;;;5015315;28;20500;-66
2021/03/13 13:43:03;;;;;;;6.57;4.38;;;22.50;41.70;;;;;;5015557;28;20030;-68
2021/03/13 13:45:29;;;;;;;11.95;8.25;;;22.20;42.10;;;;;;5030928;28;20029;-67
2021/03/13 13:47:56;;;;;;;10.95;7.78;;;21.80;42.50;;;;;;5015576;28;20033;-71
2021/03/13 13:50:23;;;;;;;9.00;6.97;;;21.80;43.90;;;;;;5014150;28;20026;-67
2021/03/13 13:52:49;;;;;;;9.27;7.30;;;21.50;43.90;;;;;;5015473;28;20061;-66
2021/03/13 13:55:17;;;;;;;10.82;7.05;;;21.50;44.90;;;;;;5015392;28;20040;-66
2021/03/13 13:57:44;;;;;;;11.15;7.50;;;21.70;44.90;;;;;;5015145;28;20381;-66
2021/03/13 14:00:13;;;;;;;10.07;6.88;;;26.20;37.20;;;;;;5014046;28;20058;-69
2021/03/13 14:02:39;;;;;;;9.65;6.85;;;27.50;36.50;;;;;;5015214;28;20026;-65
2021/03/13 14:05:06;;;;;;;7.43;6.65;;;;;;;;;;5013791;28;20085;-66
2021/03/13 14:07:33;;;;;;;10.45;6.63;;;28.30;31.60;;;;;;5015138;28;20389;-66
2021/03/13 14:09:59;;;;;;;8.18;6.30;;;27.80;32.20;;;;;;5013697;28;20026;-66
2021/03/13 14:12:25;;;;;;;12.25;6.38;;;27.60;33.60;;;;;;5014674;28;20080;-68
2021/03/13 14:14:51;;;;;;;6.38;5.78;;;26.90;33.80;;;;;;5001293;28;20041;-67
2021/03/13 14:17:17;;;;;;;6.43;5.78;;;26.50;34.90;;;;;;5014928;28;20103;-67
2021/03/13 14:19:43;;;;;;;11.50;6.40;;;26.00;34.70;;;;;;5012427;28;20022;-69
2021/03/13 14:22:08;;;;;;;7.35;5.75;;;26.00;35.50;;;;;;5013447;28;20032;-70
2021/03/13 14:24:34;;;;;;;6.57;5.43;;;25.60;34.90;;;;;;5009833;28;20453;-67
2021/03/13 14:27:00;;;;;;;8.50;6.43;;;25.10;36.30;;;;;;5011441;28;20080;-68
2021/03/13 14:29:28;;;;;;;10.80;6.60;;;25.00;36.30;;;;;;5010264;28;20022;-70
2021/03/13 14:31:54;;;;;;;7.72;5.68;;;25.40;36.50;;;;;;4994781;28;20042;-70
2021/03/13 14:34:21;;;;;;;8.27;5.53;;;;;;;;;;4994523;28;20044;-70
2021/03/13 14:36:48;;;;;;;8.73;5.63;;;;;;;;;;5009945;28;20113;-69
2021/03/13 14:39:14;;;;;;;5.63;4.47;;;26.40;34.80;;;;;;4994858;28;20030;-68
2021/03/13 14:41:42;;;;;;;4.50;4.10;;;26.90;35.10;;;;;;4994852;28;20026;-69
2021/03/13 14:44:09;;;;;;;4.28;3.90;;;26.20;35.40;;;;;;4994827;28;20057;-70
2021/03/13 14:46:35;;;;;;;5.40;3.90;;;24.40;36.90;;;;;;4994944;28;20037;-68
2021/03/13 14:49:02;;;;;;;4.82;3.60;;;23.30;39.20;;;;;;4994771;28;20116;-67
2021/03/13 14:51:28;;;;;;;4.57;3.75;;;22.20;42.10;;;;;;4995086;28;20049;-69
2021/03/13 14:53:54;;;;;;;4.50;4.10;;;22.80;42.20;;;;;;4994665;28;20027;-67
2021/03/13 14:56:20;;;;;;;4.53;3.75;;;22.20;41.80;;;;;;4993361;28;20113;-67
2021/03/13 14:58:46;;;;;;;4.75;3.85;;;21.70;42.70;;;;;;5009726;28;20045;-68
2021/03/13 15:01:12;;;;;;;6.22;4.10;;;;;;;;;;4994886;28;20030;-67
2021/03/13 15:03:38;;;;;;;5.30;3.30;;;20.70;44.20;;;;;;4994586;28;20081;-68
2021/03/13 15:06:05;;;;;;;4.43;3.42;;;20.30;46.20;;;;;;4994572;28;20034;-68
2021/03/13 15:08:32;;;;;;;4.75;3.88;;;19.80;46.80;;;;;;4994439;28;20041;-69
2021/03/13 15:10:59;;;;;;;7.80;5.13;;;19.30;48.40;;;;;;4994454;28;20097;-68
2021/03/13 15:13:25;;;;;;;7.93;4.90;;;19.00;49.10;;;;;;4994396;28;20030;-68
2021/03/13 15:15:51;;;;;;;11.30;5.55;;;18.70;50.00;;;;;;4993831;28;20069;-68
2021/03/13 15:18:17;;;;;;;6.97;5.68;;;18.40;49.60;;;;;;4994355;28;20084;-68
2021/03/13 15:20:43;;;;;;;4.78;4.22;;;18.20;50.80;;;;;;4994246;28;20034;-67
2021/03/13 15:23:09;;;;;;;5.70;4.40;;;18.10;51.70;;;;;;4994246;28;20032;-67
2021/03/13 15:25:35;;;;;;;13.25;8.27;;;17.90;52.50;;;;;;4994297;28;20035;-70
2021/03/13 15:28:01;;;;;;;9.73;6.43;;;17.80;53.20;;;;;;5009275;28;20451;-69
2021/03/13 15:30:27;;;;;;;6.65;4.93;;;17.80;52.80;;;;;;4994419;28;20062;-68
2021/03/13 15:32:52;;;;;;;8.48;5.65;;;17.60;53.30;;;;;;4993636;28;20052;-67
2021/03/13 15:35:24;;;;;;;8.20;5.28;;;17.70;53.70;;;;;;4992755;28;20536;-67
2021/03/13 15:37:50;;;;;;;;;;;18.60;52.40;;;;;;4993108;28;20478;-69
2021/03/13 15:40:18;;;;;;;7.45;4.97;;;20.90;48.20;;;;;;4993928;28;19905;-70
2021/03/13 15:42:45;;;;;;;7.45;5.53;;;22.80;43.40;;;;;;4993937;28;20022;-70
2021/03/13 15:45:12;;;;;;;13.90;8.30;;;24.00;40.00;;;;;;5008991;28;20030;-67
2021/03/13 15:47:41;;;;;;;17.15;9.77;;;24.60;38.60;;;;;;4993960;28;20048;-69
2021/03/13 15:50:09;;;;;;;13.32;8.93;;;22.70;39.30;;;;;;4993824;28;20041;-67
2021/03/13 15:52:35;;;;;;;15.20;9.52;;;22.50;40.00;;;;;;5008641;28;20030;-69
2021/03/13 15:55:03;;;;;;;14.18;8.32;;;22.60;41.60;;;;;;4992408;28;20027;-68
2021/03/13 15:57:28;;;;;;;13.50;8.90;;;21.40;42.90;;;;;;4993838;28;20035;-69
2021/03/13 15:59:54;;;;;;;13.07;7.05;;;22.10;43.40;;;;;;4993756;28;20029;-68
2021/03/13 16:02:20;;;;;;;11.85;8.15;;;21.00;43.90;;;;;;4993712;28;20030;-69
2021/03/13 16:04:46;;;;;;;11.18;6.95;;;21.50;43.70;;;;;;5008785;28;20455;-66
2021/03/13 16:07:12;;;;;;;15.00;8.57;;;20.40;45.20;;;;;;4993622;28;20038;-69
2021/03/13 16:09:38;;;;;;;12.35;6.93;;;19.90;46.90;;;;;;4993582;28;20109;-70
2021/03/13 16:12:04;;;;;;;12.93;7.63;;;19.40;47.90;;;;;;5008639;28;20030;-71
2021/03/13 16:14:30;;;;;;;13.68;7.30;;;20.30;47.40;;;;;;4993373;28;20053;-68
2021/03/13 16:16:56;;;;;;;14.30;7.53;;;20.20;46.50;;;;;;4992257;28;20027;-70
2021/03/13 16:19:22;;;;;;;13.43;8.18;;;20.50;46.40;;;;;;5008593;28;20382;-69
2021/03/13 16:21:48;;;;;;;17.48;8.40;;;19.90;47.00;;;;;;4993593;28;20097;-70
2021/03/13 16:24:16;;;;;;;21.45;11.25;;;19.40;48.30;;;;;;5008598;28;20375;-70
2021/03/13 16:26:44;;;;;;;22.13;11.52;;;18.60;50.20;;;;;;5008951;28;20049;-70
2021/03/13 16:29:10;;;;;;;27.85;12.00;;;18.10;52.10;;;;;;4997488;28;20034;-70
2021/03/13 16:31:39;;;;;;;22.63;11.75;;;17.90;52.60;;;;;;4997110;28;20050;-70
2021/03/13 16:34:05;;;;;;;13.75;8.68;;;17.30;53.70;;;;;;4997619;28;20029;-69
2021/03/13 16:36:31;;;;;;;12.68;8.43;;;16.80;54.80;;;;;;4997273;28;20026;-68
2021/03/13 16:38:57;;;;;;;14.32;8.35;;;16.40;56.10;;;;;;4997226;28;20041;-67
2021/03/13 16:41:24;;;;;;;16.55;8.20;;;16.10;57.50;;;;;;4997275;28;20477;-68
2021/03/13 16:43:51;;;;;;;23.42;9.90;;;15.80;58.30;;;;;;5012228;28;20069;-67
2021/03/13 16:46:16;;;;;;;16.48;9.90;;;15.60;59.30;;;;;;4997459;28;20041;-69
2021/03/13 16:48:43;;;;;;;16.20;8.18;;;15.40;60.20;;;;;;4997107;28;20022;-71
2021/03/13 16:51:09;;;;;;;18.60;8.15;;;15.20;61.40;;;;;;4997312;28;20030;-69
2021/03/13 16:53:35;;;;;;;15.40;9.43;;;15.10;62.30;;;;;;4997059;28;20026;-68
2021/03/13 16:56:01;;;;;;;21.10;12.40;;;14.90;63.20;;;;;;4997152;28;20493;-69
2021/03/13 16:58:26;;;;;;;24.25;12.13;;;14.80;63.30;;;;;;4996973;28;20030;-70
2021/03/13 17:00:52;;;;;;;20.92;12.18;;;14.70;63.80;;;;;;4997111;28;20034;-70
2021/03/13 17:03:18;;;;;;;30.25;15.20;;;14.60;64.80;;;;;;4996518;28;20035;-69
2021/03/13 17:05:44;;;;;;;33.58;15.82;;;14.50;65.70;;;;;;5011818;28;20034;-68
2021/03/13 17:08:10;;;;;;;30.17;15.77;;;14.40;66.00;;;;;;4996812;28;20038;-70
2021/03/13 17:10:37;;;;;;;38.53;17.80;;;14.30;66.40;;;;;;5011795;28;20067;-71
2021/03/13 17:13:04;;;;;;;40.05;19.35;;;14.20;67.90;;;;;;5011674;28;20031;-69
2021/03/13 17:15:30;;;;;;;39.55;20.02;;;14.20;67.20;;;;;;4996546;28;20034;-70
2021/03/13 17:17:56;;;;;;;39.30;18.52;;;14.10;67.60;;;;;;5011736;28;20038;-70
2021/03/13 17:20:23;;;;;;;26.67;14.48;;;14.00;67.70;;;;;;4996579;28;20057;-71
2021/03/13 17:22:48;;;;;;;19.95;12.23;;;14.00;69.00;;;;;;5011480;28;20122;-69
2021/03/13 17:25:15;;;;;;;18.60;11.75;;;13.90;69.40;;;;;;4996414;28;20110;-69
2021/03/13 17:27:41;;;;;;;35.72;19.15;;;13.80;69.80;;;;;;4995341;28;20037;-69
2021/03/13 17:30:09;;;;;;;96.15;47.17;;;13.70;69.90;;;;;;4995072;28;20379;-69
2021/03/13 17:32:35;;;;;;;112.47;55.35;;;13.70;70.60;;;;;;5010986;28;20077;-70
2021/03/13 17:35:01;;;;;;;64.03;32.67;;;13.70;71.70;;;;;;5011329;28;20058;-69
2021/03/13 17:37:27;;;;;;;47.60;25.80;;;13.60;71.50;;;;;;5011135;28;20064;-71
2021/03/13 17:39:53;;;;;;;59.35;32.30;;;13.60;71.10;;;;;;4995911;28;20110;-70
2021/03/13 17:42:19;;;;;;;70.03;37.10;;;13.50;71.00;;;;;;4996157;28;20026;-71
2021/03/13 17:44:45;;;;;;;76.25;38.15;;;13.40;71.80;;;;;;4996365;28;20141;-69
2021/03/13 17:47:11;;;;;;;56.05;31.42;;;13.40;72.20;;;;;;4996090;28;20113;-69
2021/03/13 17:49:37;;;;;;;55.13;27.70;;;13.40;73.10;;;;;;5011019;28;20026;-71
2021/03/13 17:52:03;;;;;;;63.22;31.25;;;13.40;73.00;;;;;;4995737;28;20102;-69
2021/03/13 17:54:29;;;;;;;68.22;30.83;;;13.30;72.70;;;;;;5010900;28;20028;-70
2021/03/13 17:56:55;;;;;;;57.55;27.00;;;13.20;72.70;;;;;;4995871;28;20042;-70
2021/03/13 17:59:20;;;;;;;62.00;29.10;;;13.20;73.40;;;;;;5010844;28;20030;-70
2021/03/13 18:01:51;;;;;;;53.72;25.92;;;13.10;73.00;;;;;;5010757;28;20467;-68
2021/03/13 18:04:17;;;;;;;52.92;25.77;;;13.10;73.70;;;;;;4995758;28;20025;-71
2021/03/13 18:06:43;;;;;;;53.63;26.17;;;13.10;74.20;;;;;;4995795;28;20093;-71
2021/03/13 18:09:09;;;;;;;49.55;25.08;;;13.00;74.00;;;;;;4995701;28;20462;-71
2021/03/13 18:11:36;;;;;;;44.03;24.00;;;13.00;74.30;;;;;;4995456;28;20058;-69
2021/03/13 18:14:02;;;;;;;35.60;19.58;;;12.90;74.80;;;;;;5014948;28;20058;-72
2021/03/13 18:16:28;;;;;;;44.88;20.75;;;12.90;74.80;;;;;;5013720;28;20029;-69
2021/03/13 18:18:53;;;;;;;43.50;21.55;;;12.90;75.60;;;;;;5013504;28;20492;-72
2021/03/13 18:21:19;;;;;;;42.60;22.77;;;12.90;75.50;;;;;;5015862;28;20562;-69
2021/03/13 18:23:45;;;;;;;41.08;21.80;;;12.80;75.70;;;;;;5014127;28;20049;-69
2021/03/13 18:26:12;;;;;;;37.30;20.63;;;12.80;75.50;;;;;;5011093;28;20033;-66
2021/03/13 18:28:38;;;;;;;37.80;22.58;;;12.80;77.90;;;;;;5013090;28;20072;-72
2021/03/13 18:31:04;;;;;;;36.92;19.67;;;12.80;76.80;;;;;;5014461;28;20042;-74
2021/03/13 18:33:31;;;;;;;31.80;18.55;;;12.70;78.40;;;;;;5014558;28;20026;-71
2021/03/13 18:35:57;;;;;;;33.20;20.60;;;12.70;77.70;;;;;;5013494;28;20117;-72
2021/03/13 18:38:23;;;;;;;37.83;22.55;;;12.70;78.90;;;;;;5017280;28;20034;-71
2021/03/13 18:40:50;;;;;;;45.22;25.38;;;12.60;79.10;;;;;;5014456;28;20026;-73
2021/03/13 18:43:16;;;;;;;36.70;24.02;;;12.60;78.50;;;;;;5013082;28;20061;-67
2021/03/13 18:45:42;;;;;;;39.83;23.02;;;12.50;79.50;;;;;;5012852;28;20428;-70
2021/03/13 18:48:11;;;;;;;43.30;24.90;;;12.50;80.40;;;;;;5014582;28;20370;-71
2021/03/13 18:50:38;;;;;;;47.40;25.50;;;12.40;80.00;;;;;;5019411;28;20470;-68
2021/03/13 18:53:05;;;;;;;40.03;23.20;;;12.40;80.50;;;;;;5009773;28;20482;-68
2021/03/13 18:55:31;;;;;;;43.88;24.30;;;12.30;81.80;;;;;;5009531;28;20458;-70
2021/03/13 18:57:57;;;;;;;48.38;24.73;;;12.30;82.70;;;;;;4994672;28;20034;-69
2021/03/13 19:00:24;;;;;;;45.33;25.73;;;12.30;82.40;;;;;;4994652;28;20022;-70
2021/03/13 19:02:50;;;;;;;46.50;23.95;;;12.20;82.90;;;;;;5015695;28;20022;-71
2021/03/13 19:05:16;;;;;;;45.35;24.52;;;12.10;84.50;;;;;;5012814;28;20022;-70
2021/03/13 19:07:42;;;;;;;46.80;25.33;;;12.10;83.60;;;;;;5013241;28;20022;-69
2021/03/13 19:10:08;;;;;;;46.78;26.45;;;12.10;85.10;;;;;;5014006;28;20030;-71
2021/03/13 19:12:34;;;;;;;56.03;31.15;;;12.00;84.80;;;;;;5012476;28;20117;-70
2021/03/13 19:15:00;;;;;;;54.53;30.10;;;12.00;84.90;;;;;;5012381;28;20125;-70
2021/03/13 19:17:26;;;;;;;53.20;29.20;;;12.00;85.10;;;;;;5012626;28;20040;-71
2021/03/13 19:19:52;;;;;;;52.30;29.45;;;11.90;85.50;;;;;;5012475;28;20120;-71
2021/03/13 19:22:18;;;;;;;45.20;26.92;;;11.90;85.80;;;;;;5011828;28;20030;-69
2021/03/13 19:24:44;;;;;;;43.67;26.35;;;11.80;86.10;;;;;;5028654;28;20076;-71
2021/03/13 19:27:11;;;;;;;37.75;23.38;;;11.80;86.60;;;;;;5013819;28;20041;-72
2021/03/13 19:29:37;;;;;;;42.70;24.88;;;11.80;87.30;;;;;;5012535;28;20516;-72
2021/03/13 19:32:03;;;;;;;46.08;26.27;;;11.70;88.10;;;;;;5028447;28;20111;-71
2021/03/13 19:34:29;;;;;;;52.13;29.10;;;11.70;87.00;;;;;;5013741;28;20545;-71
2021/03/13 19:36:55;;;;;;;51.55;29.42;;;11.70;86.40;;;;;;5013589;28;20109;-71
2021/03/13 19:39:22;;;;;;;47.67;28.10;;;11.60;87.90;;;;;;5028849;28;20378;-73
2021/03/13 19:41:48;;;;;;;46.72;28.92;;;11.60;87.90;;;;;;5028769;28;20038;-73
2021/03/13 19:44:14;;;;;;;50.10;28.77;;;11.50;88.50;;;;;;5012277;28;20470;-72
2021/03/13 19:46:40;;;;;;;58.50;33.40;;;11.50;88.40;;;;;;5010439;28;20018;-70
2021/03/13 19:49:06;;;;;;;64.30;35.50;;;11.40;87.90;;;;;;5013208;28;20022;-71
2021/03/13 19:51:33;;;;;;;62.42;35.30;;;11.20;89.70;;;;;;5013467;28;20037;-70
2021/03/13 19:53:59;;;;;;;64.97;37.47;;;11.10;89.80;;;;;;5012104;28;20030;-70
2021/03/13 19:56:25;;;;;;;64.15;36.22;;;11.10;89.70;;;;;;5011388;28;20029;-71
2021/03/13 19:58:50;;;;;;;65.47;37.80;;;11.10;90.30;;;;;;5000750;28;20033;-72
2021/03/13 20:01:16;;;;;;;66.90;37.28;;;11.10;90.40;;;;;;4993556;28;20073;-70
2021/03/13 20:03:42;;;;;;;77.85;40.88;;;11.10;90.60;;;;;;4993752;28;20022;-71
2021/03/13 20:06:08;;;;;;;67.18;37.42;;;11.10;90.50;;;;;;4993673;28;20359;-70
2021/03/13 20:08:35;;;;;;;69.38;38.53;;;11.00;90.80;;;;;;5000700;28;20076;-70
2021/03/13 20:11:01;;;;;;;70.85;41.42;;;11.00;90.30;;;;;;5013266;28;20521;-73
2021/03/13 20:13:27;;;;;;;61.75;35.40;;;10.90;90.50;;;;;;5028358;28;20026;-73
2021/03/13 20:15:53;;;;;;;60.20;33.33;;;10.80;91.00;;;;;;5013139;28;20463;-73
2021/03/13 20:18:19;;;;;;;64.00;34.80;;;10.80;90.60;;;;;;4994111;28;20038;-72
2021/03/13 20:20:45;;;;;;;55.38;32.25;;;10.70;90.60;;;;;;4997155;28;20045;-70
2021/03/13 20:23:11;;;;;;;56.17;33.00;;;10.70;90.60;;;;;;5028073;28;20080;-71
2021/03/13 20:25:37;;;;;;;52.75;30.70;;;10.70;91.10;;;;;;5013146;28;20029;-71
2021/03/13 20:28:04;;;;;;;50.25;29.55;;;10.70;91.00;;;;;;5011797;28;20026;-73
2021/03/13 20:30:30;;;;;;;61.92;32.60;;;10.70;91.00;;;;;;5011732;28;20030;-72
2021/03/13 20:32:55;;;;;;;52.20;29.88;;;10.70;90.70;;;;;;5011744;28;20049;-73
2021/03/13 20:35:21;;;;;;;57.22;29.83;;;10.60;91.10;;;;;;5013001;28;20088;-71
2021/03/13 20:37:48;;;;;;;58.95;33.03;;;10.60;91.30;;;;;;5011168;28;20075;-71
2021/03/13 20:40:20;;;;;;;54.78;31.77;;;10.60;90.80;;;;;;5008943;28;20116;-73
2021/03/13 20:42:46;;;;;;;71.75;36.85;;;10.60;91.20;;;;;;5010926;28;20489;-71
2021/03/13 20:45:12;;;;;;;75.30;39.90;;;10.60;91.30;;;;;;5011662;28;20025;-70
2021/03/13 20:47:38;;;;;;;61.22;33.60;;;10.60;90.90;;;;;;5012664;28;20502;-70
2021/03/13 20:50:05;;;;;;;57.15;29.63;;;10.50;90.80;;;;;;5028075;28;20467;-72
2021/03/13 20:52:31;;;;;;;51.88;29.60;;;10.50;91.60;;;;;;5011449;28;20022;-73
2021/03/13 20:54:57;;;;;;;47.15;28.52;;;10.50;90.90;;;;;;5012772;28;20022;-71
2021/03/13 20:57:23;;;;;;;57.03;31.48;;;10.40;91.00;;;;;;5011585;28;20120;-73
2021/03/13 20:59:49;;;;;;;54.13;29.77;;;10.40;90.90;;;;;;5012894;28;20053;-69
2021/03/13 21:02:18;;;;;;;54.50;31.25;;;10.30;91.00;;;;;;5011503;28;20077;-72
2021/03/13 21:04:44;;;;;;;53.35;30.20;;;10.30;91.30;;;;;;5011525;28;20040;-73
2021/03/13 21:07:10;;;;;;;59.83;33.33;;;10.20;91.50;;;;;;5026863;28;20033;-70
2021/03/13 21:09:36;;;;;;;61.97;34.25;;;10.20;91.40;;;;;;5011440;28;20034;-72
2021/03/13 21:12:02;;;;;;;58.63;33.97;;;10.00;91.80;;;;;;5009494;28;20497;-72
2021/03/13 21:14:28;;;;;;;63.25;34.25;;;10.00;92.10;;;;;;5014044;28;20038;-68
2021/03/13 21:16:54;;;;;;;61.28;33.30;;;10.00;91.40;;;;;;5013563;28;20033;-70
2021/03/13 21:19:20;;;;;;;56.08;31.75;;;10.00;91.30;;;;;;5015822;28;20053;-70
2021/03/13 21:21:46;;;;;;;58.55;33.72;;;10.00;91.30;;;;;;5015874;28;20022;-70
2021/03/13 21:24:12;;;;;;;55.65;29.40;;;9.90;91.20;;;;;;5014554;28;20390;-72
2021/03/13 21:26:38;;;;;;;52.63;28.70;;;;;;;;;;5016084;28;20041;-67